createdAt,value
2023-05-05T00:01:08.790Z,87.44
2023-05-05T00:03:36.463Z,87.16
2023-05-05T00:06:05.433Z,87.13
2023-05-05T00:08:33.393Z,87.59
2023-05-05T00:11:02.054Z,87.65
2023-05-05T00:13:29.751Z,87.11
2023-05-05T00:15:57.456Z,87.12
2023-05-05T00:18:24.665Z,86.86
2023-05-05T00:20:52.330Z,87.28
2023-05-05T00:23:20.486Z,87.11
2023-05-05T00:25:47.751Z,86.59
2023-05-05T00:28:16.536Z,87.25
2023-05-05T00:30:44.045Z,87.46
2023-05-05T00:33:11.429Z,86.97
2023-05-05T00:35:38.697Z,86.25
2023-05-05T00:38:07.274Z,85.80
2023-05-05T00:40:34.653Z,86.54
2023-05-05T00:43:02.746Z,87.05
2023-05-05T00:45:31.883Z,87.32
2023-05-05T00:48:00.736Z,87.68
2023-05-05T00:50:29.607Z,87.98
2023-05-05T00:53:01.106Z,88.07
2023-05-05T00:55:28.793Z,87.59
2023-05-05T00:57:56.779Z,87.68
2023-05-05T01:00:24.221Z,87.75
2023-05-05T01:02:53.183Z,88.03
2023-05-05T01:05:22.967Z,88.08
2023-05-05T01:08:03.034Z,88.11
2023-05-05T01:10:36.560Z,88.15
2023-05-05T01:13:20.733Z,87.73
2023-05-05T01:15:55.153Z,87.66
2023-05-05T01:18:32.293Z,87.78
2023-05-05T01:21:07.122Z,87.41
2023-05-05T01:23:55.727Z,87.35
2023-05-05T01:26:51.365Z,87.52
2023-05-05T01:29:41.434Z,87.85
2023-05-05T01:32:12.996Z,87.52
2023-05-05T01:34:45.420Z,86.95
2023-05-05T01:37:18.421Z,87.59
2023-05-05T01:39:50.228Z,87.62
2023-05-05T01:42:18.790Z,88.10
2023-05-05T01:44:48.324Z,88.25
2023-05-05T01:47:19.592Z,88.16
2023-05-05T01:49:48.093Z,87.90
2023-05-05T01:52:16.318Z,86.82
2023-05-05T01:54:45.520Z,86.54
2023-05-05T01:57:14.711Z,87.32
2023-05-05T01:59:42.423Z,87.35
2023-05-05T02:02:11.324Z,87.71
2023-05-05T02:04:43.620Z,87.97
2023-05-05T02:07:12.696Z,88.36
2023-05-05T02:09:42.529Z,88.74
2023-05-05T02:12:10.713Z,88.97
2023-05-05T02:14:39.024Z,87.71
2023-05-05T02:17:06.283Z,87.13
2023-05-05T02:19:38.857Z,87.31
2023-05-05T02:22:08.131Z,88.12
2023-05-05T02:24:35.839Z,88.01
2023-05-05T02:27:06.320Z,88.77
2023-05-05T02:29:36.595Z,88.07
2023-05-05T02:32:09.693Z,88.02
2023-05-05T02:34:39.960Z,88.20
2023-05-05T02:37:12.784Z,88.19
2023-05-05T02:39:45.245Z,87.95
2023-05-05T02:42:18.434Z,88.10
2023-05-05T02:44:46.489Z,88.53
2023-05-05T02:47:13.877Z,88.24
2023-05-05T02:49:41.206Z,88.63
2023-05-05T02:52:09.969Z,88.47
2023-05-05T02:54:37.582Z,88.27
2023-05-05T02:57:04.843Z,88.68
2023-05-05T02:59:38.249Z,88.74
2023-05-05T03:02:16.958Z,88.29
2023-05-05T03:04:49.417Z,88.31
2023-05-05T03:07:25.962Z,87.78
2023-05-05T03:10:01.095Z,88.68
2023-05-05T03:12:37.663Z,88.79
2023-05-05T03:15:08.284Z,88.88
2023-05-05T03:17:36.944Z,88.71
2023-05-05T03:20:06.210Z,88.83
2023-05-05T03:22:37.393Z,88.15
2023-05-05T03:25:06.298Z,89.25
2023-05-05T03:27:33.578Z,88.90
2023-05-05T03:30:02.643Z,88.58
2023-05-05T03:32:30.996Z,87.89
2023-05-05T03:34:58.284Z,87.71
2023-05-05T03:37:25.460Z,88.12
2023-05-05T03:39:54.021Z,88.62
2023-05-05T03:42:21.266Z,88.04
2023-05-05T03:44:48.538Z,87.74
2023-05-05T03:47:15.708Z,88.34
2023-05-05T03:49:42.917Z,88.51
2023-05-05T03:52:10.260Z,87.19
2023-05-05T03:54:37.832Z,87.67
2023-05-05T03:57:06.526Z,88.71
2023-05-05T03:59:33.835Z,88.41
2023-05-05T04:02:01.557Z,88.37
2023-05-05T04:04:29.095Z,88.98
2023-05-05T04:06:56.408Z,89.11
2023-05-05T04:09:23.589Z,88.92
2023-05-05T04:11:51.234Z,88.95
2023-05-05T04:14:20.033Z,89.20
2023-05-05T04:16:47.222Z,88.69
2023-05-05T04:19:14.433Z,88.56
2023-05-05T04:21:41.786Z,88.32
2023-05-05T04:24:09.734Z,88.81
2023-05-05T04:26:37.339Z,88.63
2023-05-05T04:29:07.043Z,88.63
2023-05-05T04:31:35.681Z,88.56
2023-05-05T04:34:03.008Z,88.36
2023-05-05T04:36:30.167Z,88.07
2023-05-05T04:38:57.497Z,87.55
2023-05-05T04:41:24.743Z,87.76
2023-05-05T04:43:51.953Z,87.59
2023-05-05T04:46:19.230Z,88.16
2023-05-05T04:48:47.887Z,88.22
2023-05-05T04:51:15.235Z,88.50
2023-05-05T04:53:42.612Z,88.56
2023-05-05T04:56:09.831Z,88.20
2023-05-05T04:58:37.217Z,88.39
2023-05-05T05:01:05.062Z,88.12
2023-05-05T05:03:32.493Z,87.92
2023-05-05T05:06:01.189Z,87.92
2023-05-05T05:08:28.754Z,87.74
2023-05-05T05:10:56.234Z,87.73
2023-05-05T05:13:23.829Z,87.42
2023-05-05T05:15:51.396Z,87.52
2023-05-05T05:18:18.662Z,87.71
2023-05-05T05:20:46.554Z,87.78
2023-05-05T05:23:15.372Z,87.36
2023-05-05T05:25:43.204Z,87.22
2023-05-05T05:28:11.140Z,87.20
2023-05-05T05:30:38.691Z,86.21
2023-05-05T05:33:06.908Z,85.80
2023-05-05T05:35:34.242Z,86.16
2023-05-05T05:38:04.161Z,86.59
2023-05-05T05:40:34.631Z,85.55
2023-05-05T05:43:03.016Z,84.96
2023-05-05T05:45:32.184Z,84.70
2023-05-05T05:48:02.437Z,85.07
2023-05-05T05:50:36.576Z,84.87
2023-05-05T05:53:03.919Z,85.17
2023-05-05T05:55:32.167Z,84.86
2023-05-05T05:58:00.959Z,84.52
2023-05-05T06:00:30.454Z,84.21
2023-05-05T06:02:57.893Z,84.56
2023-05-05T06:05:25.447Z,84.77
2023-05-05T06:07:52.796Z,84.72
2023-05-05T06:10:27.826Z,85.59
2023-05-05T06:12:55.488Z,85.34
2023-05-05T06:15:25.713Z,85.08
2023-05-05T06:17:53.266Z,84.73
2023-05-05T06:20:20.597Z,85.66
2023-05-05T06:22:47.895Z,85.72
2023-05-05T06:25:15.793Z,86.08
2023-05-05T06:27:43.396Z,86.00
2023-05-05T06:30:11.644Z,85.78
2023-05-05T06:32:40.419Z,86.08
2023-05-05T06:35:14.044Z,85.89
2023-05-05T06:37:44.367Z,86.13
2023-05-05T06:40:12.510Z,85.76
2023-05-05T06:42:39.812Z,85.66
2023-05-05T06:45:10.161Z,85.48
2023-05-05T06:47:37.618Z,85.33
2023-05-05T06:50:09.099Z,84.44
2023-05-05T06:52:36.964Z,84.80
2023-05-05T06:55:04.826Z,83.82
2023-05-05T06:57:32.132Z,83.35
2023-05-05T07:00:00.060Z,82.01
2023-05-05T07:02:27.533Z,82.80
2023-05-05T07:04:55.713Z,81.71
2023-05-05T07:07:24.461Z,82.01
2023-05-05T07:09:51.857Z,80.77
2023-05-05T07:12:19.400Z,80.63
2023-05-05T07:14:46.861Z,78.28
2023-05-05T07:17:14.124Z,79.29
2023-05-05T07:19:41.416Z,76.85
2023-05-05T07:22:08.839Z,79.36
2023-05-05T07:24:37.547Z,78.01
2023-05-05T07:27:05.256Z,78.20
2023-05-05T07:29:32.545Z,78.45
2023-05-05T07:31:59.853Z,77.26
2023-05-05T07:34:32.899Z,77.41
2023-05-05T07:37:00.197Z,78.93
2023-05-05T07:39:42.332Z,76.99
2023-05-05T07:42:11.655Z,76.19
2023-05-05T07:44:43.856Z,75.79
2023-05-05T07:47:13.472Z,72.99
2023-05-05T07:49:42.872Z,74.12
2023-05-05T07:52:12.186Z,73.13
2023-05-05T07:54:46.075Z,73.62
2023-05-05T07:57:19.467Z,74.60
2023-05-05T07:59:48.959Z,70.59
2023-05-05T08:02:18.397Z,73.05
2023-05-05T08:04:47.821Z,73.07
2023-05-05T08:07:17.028Z,72.68
2023-05-05T08:09:48.194Z,71.94
2023-05-05T08:12:19.867Z,71.71
2023-05-05T08:14:52.236Z,70.77
2023-05-05T08:17:21.852Z,70.28
2023-05-05T08:19:53.927Z,68.98
2023-05-05T08:22:34.111Z,67.97
2023-05-05T08:25:07.954Z,66.86
2023-05-05T08:27:37.445Z,65.96
2023-05-05T08:30:08.536Z,65.70
2023-05-05T08:32:36.314Z,64.79
2023-05-05T08:35:12.683Z,64.84
2023-05-05T08:37:40.102Z,65.19
2023-05-05T08:40:14.074Z,63.14
2023-05-05T08:42:47.226Z,61.97
2023-05-05T08:45:14.911Z,63.51
2023-05-05T08:47:43.549Z,62.74
2023-05-05T08:50:11.897Z,63.65
2023-05-05T08:52:41.442Z,63.60
2023-05-05T08:55:15.621Z,60.49
2023-05-05T08:57:50.963Z,57.95
2023-05-05T09:00:19.870Z,57.34
2023-05-05T09:02:47.634Z,58.92
2023-05-05T09:05:16.404Z,60.32
2023-05-05T09:07:44.426Z,61.11
2023-05-05T09:10:13.464Z,56.88
2023-05-05T09:12:45.514Z,56.15
2023-05-05T09:15:14.865Z,55.53
2023-05-05T09:20:34.720Z,55.63
2023-05-05T09:23:09.432Z,53.96
2023-05-05T09:25:38.993Z,52.39
2023-05-05T09:28:10.805Z,52.40
2023-05-05T09:30:38.719Z,54.64
2023-05-05T09:33:06.547Z,52.90
2023-05-05T09:35:51.194Z,54.73
2023-05-05T09:38:19.452Z,55.26
2023-05-05T09:40:49.361Z,52.54
2023-05-05T09:43:17.089Z,51.52
2023-05-05T09:45:44.569Z,51.06
2023-05-05T09:48:25.716Z,50.86
2023-05-05T09:50:54.039Z,51.11
2023-05-05T09:53:21.847Z,53.69
2023-05-05T09:55:57.903Z,51.62
2023-05-05T09:58:26.973Z,49.64
2023-05-05T10:00:55.312Z,51.90
2023-05-05T10:03:25.151Z,50.10
2023-05-05T10:05:54.149Z,51.73
2023-05-05T10:08:23.473Z,49.74
2023-05-05T10:10:53.353Z,48.35
2023-05-05T10:13:24.180Z,51.36
2023-05-05T10:15:53.089Z,49.88
2023-05-05T10:18:22.196Z,50.48
2023-05-05T10:20:56.014Z,47.56
2023-05-05T10:23:25.133Z,47.84
2023-05-05T10:25:59.258Z,46.24
2023-05-05T10:28:33.023Z,44.90
2023-05-05T10:31:04.237Z,50.50
2023-05-05T10:33:47.969Z,51.91
2023-05-05T10:36:16.415Z,46.87
2023-05-05T10:38:45.644Z,46.11
2023-05-05T10:41:14.300Z,48.30
2023-05-05T10:43:43.564Z,48.26
2023-05-05T10:46:11.204Z,49.19
2023-05-05T10:48:47.173Z,45.75
2023-05-05T10:51:39.436Z,46.36
2023-05-05T10:54:13.903Z,46.70
2023-05-05T10:56:43.267Z,46.55
2023-05-05T10:59:42.683Z,45.32
2023-05-05T11:02:24.315Z,43.22
2023-05-05T11:05:15.306Z,42.94
2023-05-05T11:07:43.264Z,43.80
2023-05-05T11:10:12.176Z,43.35
2023-05-05T11:13:20.004Z,43.91
2023-05-05T11:15:49.733Z,44.00
2023-05-05T11:18:36.870Z,40.92
2023-05-05T11:21:22.489Z,44.02
2023-05-05T11:23:51.370Z,42.87
2023-05-05T11:26:40.430Z,42.23
2023-05-05T11:29:10.536Z,39.26
2023-05-05T11:31:39.371Z,40.63
2023-05-05T11:34:29.298Z,41.56
2023-05-05T11:37:03.325Z,40.20
2023-05-05T11:39:42.939Z,38.48
2023-05-05T11:42:30.287Z,40.07
2023-05-05T11:45:01.509Z,38.46
2023-05-05T11:47:33.355Z,35.41
2023-05-05T11:50:17.455Z,37.24
2023-05-05T11:52:44.974Z,36.42
2023-05-05T11:55:12.338Z,36.04
2023-05-05T11:57:40.040Z,38.56
2023-05-05T12:00:09.201Z,35.33
2023-05-05T12:02:42.290Z,35.85
2023-05-05T12:05:09.862Z,35.01
2023-05-05T12:07:37.233Z,33.56
2023-05-05T12:10:07.047Z,33.39
2023-05-05T12:12:38.534Z,31.54
2023-05-05T12:15:07.130Z,32.85
2023-05-05T12:17:45.111Z,32.52
2023-05-05T12:20:13.478Z,33.46
2023-05-05T12:22:41.037Z,32.10
2023-05-05T12:25:09.272Z,31.99
2023-05-05T12:27:36.648Z,34.13
2023-05-05T12:30:15.759Z,32.83
2023-05-05T12:32:45.683Z,31.00
2023-05-05T12:35:16.114Z,34.26
2023-05-05T12:37:43.883Z,30.93
2023-05-05T12:40:47.539Z,31.45
2023-05-05T12:43:26.586Z,33.23
2023-05-05T12:46:05.768Z,29.89
2023-05-05T12:48:36.050Z,31.75
2023-05-05T12:51:20.159Z,31.45
2023-05-05T12:53:48.942Z,33.03
2023-05-05T12:56:38.776Z,34.85
2023-05-05T12:59:08.150Z,35.16
2023-05-05T13:01:36.638Z,33.94
2023-05-05T13:04:07.260Z,35.02
2023-05-05T13:06:36.203Z,37.26
2023-05-05T13:09:04.120Z,36.69
2023-05-05T13:11:36.405Z,37.71
2023-05-05T13:14:03.850Z,37.28
2023-05-05T13:16:31.355Z,39.70
2023-05-05T13:18:58.983Z,41.75
2023-05-05T13:21:28.193Z,38.82
2023-05-05T13:24:04.887Z,40.64
2023-05-05T13:26:39.664Z,39.52
2023-05-05T13:29:06.931Z,43.31
2023-05-05T13:31:34.862Z,40.92
2023-05-05T13:34:02.291Z,39.94
2023-05-05T13:36:33.316Z,40.45
2023-05-05T13:39:00.869Z,38.72
2023-05-05T13:41:28.397Z,41.07
2023-05-05T13:43:56.596Z,40.70
2023-05-05T13:46:23.895Z,42.45
2023-05-05T13:48:56.074Z,44.51
2023-05-05T13:51:24.408Z,43.04
2023-05-05T13:53:53.224Z,39.21
2023-05-05T13:56:20.585Z,41.87
2023-05-05T13:58:47.767Z,42.75
2023-05-05T14:01:15.423Z,40.98
2023-05-05T14:03:42.744Z,44.16
2023-05-05T14:06:09.975Z,43.70
2023-05-05T14:08:37.384Z,43.15
2023-05-05T14:11:06.115Z,42.95
2023-05-05T14:13:33.387Z,42.14
2023-05-05T14:16:00.647Z,41.32
2023-05-05T14:18:28.517Z,40.76
2023-05-05T14:20:56.316Z,43.20
2023-05-05T14:23:24.040Z,43.46
2023-05-05T14:25:51.292Z,42.60
2023-05-05T14:28:20.008Z,41.38
2023-05-05T14:30:47.274Z,44.82
2023-05-05T14:33:14.545Z,44.03
2023-05-05T14:35:41.763Z,43.42
2023-05-05T14:38:09.075Z,44.43
2023-05-05T14:40:36.424Z,43.06
2023-05-05T14:43:03.634Z,44.36
2023-05-05T14:45:32.702Z,46.37
2023-05-05T14:48:00.229Z,42.40
2023-05-05T14:50:27.501Z,42.01
2023-05-05T14:52:54.920Z,42.06
2023-05-05T14:55:22.510Z,41.20
2023-05-05T14:57:49.974Z,41.72
2023-05-05T15:00:17.750Z,40.02
2023-05-05T15:02:48.319Z,41.03
2023-05-05T15:05:15.847Z,44.07
2023-05-05T15:07:43.279Z,43.60
2023-05-05T15:10:11.253Z,44.23
2023-05-05T15:12:39.018Z,44.35
2023-05-05T15:15:08.868Z,41.47
2023-05-05T15:17:37.678Z,44.36
2023-05-05T15:20:07.786Z,44.61
2023-05-05T15:22:35.167Z,43.81
2023-05-05T15:25:02.428Z,40.96
2023-05-05T15:27:30.791Z,43.13
2023-05-05T15:29:58.152Z,44.04
2023-05-05T15:32:25.557Z,44.47
2023-05-05T15:34:52.748Z,45.64
2023-05-05T15:37:21.374Z,45.81
2023-05-05T15:39:48.602Z,47.45
2023-05-05T15:42:15.761Z,46.72
2023-05-05T15:44:42.941Z,46.77
2023-05-05T15:47:11.049Z,45.96
2023-05-05T15:49:38.346Z,45.17
2023-05-05T15:52:05.941Z,46.94
2023-05-05T15:54:34.532Z,46.50
2023-05-05T15:57:03.207Z,45.97
2023-05-05T15:59:30.537Z,46.74
2023-05-05T16:01:58.187Z,44.36
2023-05-05T16:04:25.619Z,45.73
2023-05-05T16:06:53.168Z,46.17
2023-05-05T16:09:20.372Z,46.10
2023-05-05T16:11:49.271Z,46.70
2023-05-05T16:14:16.710Z,45.71
2023-05-05T16:16:44.056Z,47.85
2023-05-05T16:19:11.472Z,48.20
2023-05-05T16:21:38.947Z,47.93
2023-05-05T16:24:06.979Z,47.40
2023-05-05T16:26:35.951Z,44.25
2023-05-05T16:29:04.788Z,41.61
2023-05-05T16:31:34.088Z,39.78
2023-05-05T16:34:01.417Z,39.76
2023-05-05T16:36:28.675Z,43.29
2023-05-05T16:38:56.562Z,45.94
2023-05-05T16:41:24.306Z,45.24
2023-05-05T16:43:51.591Z,44.76
2023-05-05T16:46:20.257Z,42.39
2023-05-05T16:48:47.857Z,43.98
2023-05-05T16:51:15.212Z,45.81
2023-05-05T16:53:42.501Z,46.68
2023-05-05T16:56:11.720Z,47.16
2023-05-05T16:58:39.598Z,47.79
2023-05-05T17:01:06.909Z,49.01
2023-05-05T17:03:36.032Z,50.27
2023-05-05T17:06:03.497Z,49.68
2023-05-05T17:08:30.827Z,50.98
2023-05-05T17:10:58.283Z,50.65
2023-05-05T17:13:25.715Z,50.59
2023-05-05T17:15:53.004Z,49.72
2023-05-05T17:18:23.041Z,52.37
2023-05-05T17:20:52.106Z,52.60
2023-05-05T17:23:21.339Z,51.35
2023-05-05T17:25:48.546Z,52.36
2023-05-05T17:28:17.298Z,53.68
2023-05-05T17:30:44.709Z,53.52
2023-05-05T17:33:11.976Z,53.72
2023-05-05T17:35:39.316Z,53.65
2023-05-05T17:38:07.974Z,54.84
2023-05-05T17:40:35.308Z,54.41
2023-05-05T17:43:02.525Z,54.53
2023-05-05T17:45:29.861Z,54.84
2023-05-05T17:47:57.283Z,54.89
2023-05-05T17:50:24.603Z,55.89
2023-05-05T17:52:53.553Z,56.45
2023-05-05T17:55:22.405Z,56.61
2023-05-05T17:57:49.811Z,57.11
2023-05-05T18:00:18.415Z,57.58
2023-05-05T18:02:46.078Z,57.85
2023-05-05T18:05:14.452Z,58.38
2023-05-05T18:07:41.762Z,59.17
2023-05-05T18:10:10.775Z,59.11
2023-05-05T18:12:39.498Z,59.14
2023-05-05T18:15:08.848Z,59.35
2023-05-05T18:17:36.671Z,59.85
2023-05-05T18:20:06.832Z,60.31
2023-05-05T18:22:34.406Z,60.88
2023-05-05T18:25:01.634Z,61.50
2023-05-05T18:27:29.387Z,61.95
2023-05-05T18:29:58.127Z,62.65
2023-05-05T18:32:25.445Z,62.95
2023-05-05T18:34:52.707Z,63.12
2023-05-05T18:37:19.949Z,63.79
2023-05-05T18:39:47.225Z,63.51
2023-05-05T18:42:14.528Z,65.69
2023-05-05T18:44:42.036Z,64.85
2023-05-05T18:47:10.799Z,64.51
2023-05-05T18:49:38.174Z,65.48
2023-05-05T18:52:05.604Z,66.31
2023-05-05T18:54:32.908Z,66.46
2023-05-05T18:57:00.130Z,67.45
2023-05-05T18:59:27.449Z,67.25
2023-05-05T19:01:55.000Z,67.74
2023-05-05T19:04:30.831Z,68.09
2023-05-05T19:06:58.844Z,68.55
2023-05-05T19:09:26.189Z,68.96
2023-05-05T19:11:53.609Z,69.04
2023-05-05T19:14:22.523Z,69.57
2023-05-05T19:16:50.032Z,69.29
2023-05-05T19:19:17.284Z,69.98
2023-05-05T19:21:45.966Z,70.41
2023-05-05T19:24:14.060Z,70.40
2023-05-05T19:26:41.475Z,70.85
2023-05-05T19:29:08.759Z,71.53
2023-05-05T19:31:36.511Z,71.27
2023-05-05T19:34:04.878Z,72.04
2023-05-05T19:36:33.591Z,72.35
2023-05-05T19:39:03.538Z,73.27
2023-05-05T19:41:31.237Z,72.47
2023-05-05T19:43:58.610Z,72.68
2023-05-05T19:46:26.968Z,72.77
2023-05-05T19:48:54.336Z,73.01
2023-05-05T19:51:21.881Z,72.87
2023-05-05T19:53:49.204Z,72.93
2023-05-05T19:56:17.897Z,72.71
2023-05-05T19:58:56.103Z,74.06
2023-05-05T20:01:24.101Z,74.61
2023-05-05T20:03:54.460Z,74.24
2023-05-05T20:06:22.034Z,73.71
2023-05-05T20:08:49.242Z,73.74
2023-05-05T20:11:18.353Z,74.54
2023-05-05T20:13:45.616Z,75.36
2023-05-05T20:16:12.868Z,75.76
2023-05-05T20:18:40.393Z,76.10
2023-05-05T20:21:07.750Z,75.58
2023-05-05T20:23:35.196Z,74.70
2023-05-05T20:26:02.628Z,75.29
2023-05-05T20:28:31.953Z,75.16
2023-05-05T20:31:00.784Z,75.54
2023-05-05T20:33:28.521Z,76.08
2023-05-05T20:35:55.817Z,75.87
2023-05-05T20:38:23.615Z,76.33
2023-05-05T20:40:52.282Z,75.77
2023-05-05T20:43:19.616Z,75.63
2023-05-05T20:45:48.341Z,76.00
2023-05-05T20:48:15.849Z,76.12
2023-05-05T20:50:43.530Z,76.03
2023-05-05T20:53:13.888Z,76.05
2023-05-05T20:55:41.286Z,76.27
2023-05-05T20:58:09.320Z,77.03
2023-05-05T21:00:36.737Z,77.51
2023-05-05T21:03:06.165Z,77.60
2023-05-05T21:05:33.639Z,77.56
2023-05-05T21:08:01.330Z,77.71
2023-05-05T21:10:29.149Z,78.17
2023-05-05T21:12:56.610Z,78.02
2023-05-05T21:15:24.048Z,78.43
2023-05-05T21:17:51.892Z,77.81
2023-05-05T21:20:21.046Z,78.26
2023-05-05T21:22:48.370Z,78.94
2023-05-05T21:25:17.320Z,78.48
2023-05-05T21:27:45.125Z,78.98
2023-05-05T21:30:13.100Z,78.83
2023-05-05T21:32:40.712Z,77.70
2023-05-05T21:35:09.278Z,78.88
2023-05-05T21:37:39.629Z,78.88
2023-05-05T21:40:11.342Z,78.26
2023-05-05T21:42:38.824Z,79.46
2023-05-05T21:45:06.953Z,80.15
2023-05-05T21:47:34.577Z,79.22
2023-05-05T21:50:02.121Z,80.01
2023-05-05T21:52:29.401Z,79.88
2023-05-05T21:54:58.104Z,80.04
2023-05-05T21:57:25.564Z,79.06
2023-05-05T21:59:52.792Z,79.37
2023-05-05T22:02:20.218Z,79.42
2023-05-05T22:04:50.640Z,79.96
2023-05-05T22:07:17.825Z,80.03
2023-05-05T22:09:46.086Z,79.90
2023-05-05T22:12:14.759Z,80.41
2023-05-05T22:14:42.032Z,80.60
2023-05-05T22:17:09.276Z,80.41
2023-05-05T22:19:36.505Z,80.40
2023-05-05T22:22:03.814Z,80.43
2023-05-05T22:24:31.273Z,80.78
2023-05-05T22:26:58.625Z,80.53
2023-05-05T22:29:27.573Z,80.68
2023-05-05T22:31:54.981Z,80.90
2023-05-05T22:34:22.328Z,81.15
2023-05-05T22:36:49.993Z,80.09
2023-05-05T22:39:18.734Z,80.69
2023-05-05T22:41:46.658Z,80.36
2023-05-05T22:44:14.000Z,80.71
2023-05-05T22:46:42.777Z,80.07
2023-05-05T22:49:10.396Z,81.02
2023-05-05T22:51:37.668Z,80.88
2023-05-05T22:54:05.146Z,80.69
2023-05-05T22:56:33.473Z,80.69
2023-05-05T22:59:00.807Z,80.65
2023-05-05T23:01:28.319Z,80.58
2023-05-05T23:03:57.139Z,80.92
2023-05-05T23:06:25.278Z,81.05
2023-05-05T23:08:52.889Z,81.85
2023-05-05T23:11:20.228Z,81.13
2023-05-05T23:13:47.593Z,81.01
2023-05-05T23:16:14.873Z,82.04
2023-05-05T23:18:42.201Z,81.48
2023-05-05T23:21:10.967Z,81.68
2023-05-05T23:23:38.220Z,81.82
2023-05-05T23:26:05.575Z,81.62
2023-05-05T23:28:33.350Z,81.78
2023-05-05T23:31:01.220Z,81.64
2023-05-05T23:33:28.658Z,81.34
2023-05-05T23:35:56.081Z,81.97
2023-05-05T23:38:24.804Z,82.11
2023-05-05T23:40:52.223Z,82.34
2023-05-05T23:43:19.422Z,81.29
2023-05-05T23:45:46.675Z,82.16
2023-05-05T23:48:14.142Z,82.15
2023-05-05T23:50:41.423Z,82.49
2023-05-05T23:53:09.169Z,82.45
2023-05-05T23:55:37.980Z,82.73
2023-05-05T23:58:05.336Z,82.21
